Search for airport 
image banner adimage banner adimage banner ad
image banner ad

KSCK - Stockton Metropolitan

Located in Stockton, United States

ICAO - SCK, IATA -

Data provided by Airmate  

General information

Coordinates: N37°53'40" W121°14'19"
Elevation is 33 feet MSL.
Magnetic variation is 14° East
View others Airports in California

Operational data

Special qualification required
Current time UTC:
Current local time:
Weather
METAR: KSCK 221355Z 02004KT 10SM CLR 15/13 A2990 RMK AO2 SLP126 T01500133
TAF: KSCK 221123Z 2212/2312 32008KT P6SM SKC FM222300 30013KT P6SM SKC FM230400 32009KT P6SM SKC
View NOTAMs / SUP AIP / TFR affecting this airport [VIEW]
Communications frequencies: [VIEW]

Runways:

RWY identifierQFULength (ft)Width (ft)SurfaceLDA (ft)
11R128°444875ASPH4448
29L308°444875ASPH3386
11L128°10249150ASPH8650
29R308°10249150ASPH8650

Airport contact information

Address: Stockton United States

Other aviation service providers

Flight schools

Rj Tutt Aviation

Rj Tutt Aviation

Satellite view of KSCK